Andes — 5BFM3 — position and weather

sailwx.info

Track history (hours):
 
Tides and Currents Weather Stations Pressure Air Temp Water Temp Dewpoint Dewpoint Depression Visibility Wind Speed Wind Dir Waves Ship Positions

Andes

Last reported at 2017-Jan-14 08:33 UTC. Time now 2017-Jan-20 16:07 UTC.
Position N 50°10' W 001°59'.

Length 182 m; draft 10.5 m.

Type: Ship. MMSI: 209394000.

Date/timePositionNaut miles runAvg speedWind from/ knotsBaromVisibWave heightAir tempDewpointWater temp
2017-Jan-14 08:33N 50°10' W 001°59'9 8.8
2017-Jan-14 07:33N 50°12' W 001°46'1110.6
2017-Jan-14 06:33N 50°15' W 001°30'4414.4
2017-Jan-14 03:31N 50°27' W 000°24'5213.1
2017-Jan-13 23:33N 50°46' E 000°51'1813.4
2017-Jan-13 22:14N 50°57' E 001°12'912.7
2017-Jan-13 21:33N 51°05' E 001°19'1211.7
2017-Jan-13 20:34N 51°09' E 001°37'1616.2
2017-Jan-13 19:34N 51°21' E 001°54'10 9.5
2017-Jan-13 18:33N 51°22' E 002°09'10 9.8
2017-Jan-13 17:33N 51°22' E 002°25'10 9.9
2017-Jan-13 16:33N 51°22' E 002°40'10 9.8
2017-Jan-13 15:33N 51°23' E 002°56'1010.1
2017-Jan-13 14:33N 51°24' E 003°12'1110.5
2017-Jan-13 13:33N 51°25' E 003°29'6 6.3
2017-Jan-13 12:33N 51°26' E 003°39'9 8.8
2017-Jan-13 11:33N 51°21' E 003°50'9 8.6
2017-Jan-13 10:33N 51°26' E 004°01'8 7.6
2017-Jan-13 09:33N 51°24' E 004°13'4 4.0
2017-Jan-13 08:34N 51°21' E 004°17'2 1.5
2017-Jan-13 07:33N 51°19' E 004°19'0 0.2
2017-Jan-13 06:09N 51°20' E 004°19'0 0.0
2017-Jan-13 05:21N 51°20' E 004°19'0 0.0
2017-Jan-13 04:33N 51°20' E 004°19'0 0.0
2017-Jan-13 03:27N 51°20' E 004°19'0 0.0
2017-Jan-13 00:33N 51°20' E 004°19'0 0.0
2017-Jan-12 23:33N 51°20' E 004°19'0 0.0
2017-Jan-12 18:27N 51°20' E 004°19'0 0.3
2017-Jan-12 17:33N 51°19' E 004°19'2 0.1
2017-Jan-12 00:12N 51°18' E 004°20'0 0.0
2017-Jan-11 21:24N 51°18' E 004°20'0 0.0
2017-Jan-11 03:12N 51°18' E 004°20'0 0.0
2017-Jan-10 16:18N 51°18' E 004°20'2 2.0
2017-Jan-10 15:33N 51°19' E 004°19'2 2.2
2017-Jan-10 14:34N 51°21' E 004°17'4 4.0
2017-Jan-10 13:33N 51°24' E 004°12'9 9.3
2017-Jan-10 12:33N 51°25' E 003°58'1010.0
2017-Jan-10 11:33N 51°25' E 003°42'10 9.8
2017-Jan-10 10:33N 51°25' E 003°26'1514.7
2017-Jan-10 09:34N 51°24' E 003°03'1212.4
2017-Jan-10 08:33N 51°22' E 002°43'5 5.3
2017-Jan-10 07:31N 51°26' E 002°37'0 0.0
2017-Jan-10 06:31N 51°26' E 002°37'0 0.0
2017-Jan-10 05:31N 51°26' E 002°37'0 0.1
2017-Jan-10 04:31N 51°26' E 002°37'0 0.1
2017-Jan-10 03:31N 51°26' E 002°37'0 0.0
2017-Jan-10 02:31N 51°26' E 002°37'0 0.0
2017-Jan-10 01:31N 51°26' E 002°38'0 0.0
2017-Jan-10 00:31N 51°26' E 002°37'0 0.0
2017-Jan-09 23:31N 51°26' E 002°37'0 0.0
2017-Jan-09 22:31N 51°27' E 002°37'0 0.0
2017-Jan-09 21:31N 51°27' E 002°37'0 0.0
2017-Jan-09 20:31N 51°27' E 002°37'0 0.0
2017-Jan-09 19:31N 51°27' E 002°37'0 0.1
2017-Jan-09 18:31N 51°26' E 002°37'0 0.0
2017-Jan-09 17:28N 51°27' E 002°37'0 0.1
2017-Jan-09 16:31N 51°27' E 002°37'0 0.0
2017-Jan-09 15:31N 51°27' E 002°37'0 0.0
2017-Jan-09 14:31N 51°27' E 002°37'0 0.0
2017-Jan-09 13:31N 51°27' E 002°37'0 0.0
2017-Jan-09 12:31N 51°27' E 002°37'0 0.0
2017-Jan-09 11:31N 51°27' E 002°37'0 0.0
2017-Jan-09 10:31N 51°27' E 002°37'0 0.0
2017-Jan-09 09:28N 51°27' E 002°37'0 0.0
2017-Jan-09 08:31N 51°27' E 002°37'0 0.0
2017-Jan-09 07:31N 51°27' E 002°37'0 0.2
2017-Jan-09 06:31N 51°26' E 002°37'0 0.0
2017-Jan-09 05:31N 51°26' E 002°37'0 0.0
2017-Jan-09 04:31N 51°26' E 002°37'0 0.0
2017-Jan-09 03:31N 51°26' E 002°37'0 0.1
2017-Jan-09 02:31N 51°26' E 002°37'0 0.1
2017-Jan-09 01:31N 51°26' E 002°37'0 0.0
2017-Jan-09 00:31N 51°26' E 002°37'0 0.0
2017-Jan-08 23:28N 51°26' E 002°37'0 0.0
2017-Jan-08 22:31N 51°26' E 002°37'0 0.0
2017-Jan-08 21:31N 51°26' E 002°37'0 0.0
2017-Jan-08 20:31N 51°26' E 002°37'0 0.0
2017-Jan-08 19:31N 51°26' E 002°37'0 0.1
2017-Jan-08 18:31N 51°26' E 002°37'0 0.0
2017-Jan-08 17:31N 51°26' E 002°37'1 1.3
2017-Jan-08 16:31N 51°26' E 002°35'0 0.0
2017-Jan-08 15:31N 51°26' E 002°35'0 0.0
2017-Jan-08 14:31N 51°26' E 002°35'0 0.1
2017-Jan-08 13:31N 51°26' E 002°35'0 0.1
2017-Jan-08 12:31N 51°26' E 002°35'0 0.0
2017-Jan-08 11:31N 51°26' E 002°35'0 0.0
2017-Jan-08 10:31N 51°26' E 002°35'0 0.0
2017-Jan-08 09:31N 51°26' E 002°35'0 0.0
2017-Jan-08 08:31N 51°26' E 002°35'0 0.0
2017-Jan-08 07:31N 51°26' E 002°35'1 1.3
2017-Jan-08 06:34N 51°25' E 002°35'1110.8
2017-Jan-08 05:34N 51°19' E 002°21'1313.4
2017-Jan-08 04:33N 51°12' E 002°03'1212.3
2017-Jan-08 03:33N 51°05' E 001°46'1211.9
2017-Jan-08 02:34N 50°56' E 001°33'1111.1
2017-Jan-08 01:33N 50°47' E 001°26'41 9.4
2017-Jan-07 21:11N 50°24' E 000°31'710.4
2017-Jan-07 20:33N 50°23' E 000°21'1110.8
2017-Jan-07 19:33N 50°20' E 000°04'1111.2
2017-Jan-07 18:33N 50°17' W 000°13'1411.8
2017-Jan-07 17:21N 50°13' W 000°34'2413.1
2017-Jan-07 15:33N 50°07' W 001°10'1414.1
2017-Jan-07 14:33N 50°04' W 001°31'1414.2
2017-Jan-07 13:34N 50°00' W 001°52'1313.4
2017-Jan-07 12:33N 49°57' W 002°12'1512.3
2017-Jan-07 11:18N 49°53' W 002°35'911.7
2017-Jan-07 10:34N 49°51' W 002°48'1111.2
2017-Jan-07 09:33N 49°45' W 003°04'1111.0
2017-Jan-07 08:33N 49°40' W 003°18'8612.3
2017-Jan-07 01:33N 48°56' W 005°12'1313.3
2017-Jan-07 00:33N 48°49' W 005°30'4113.5
2017-Jan-06 21:33N 48°15' W 006°02'1414.1
2017-Jan-06 20:33N 48°02' W 006°12'1414.2
2017-Jan-06 19:33N 47°49' W 006°21'4013.5
2017-Jan-06 16:34N 47°14' W 006°49'  
Track history (hours):
 
Tides and Currents Weather Stations Pressure Air Temp Water Temp Dewpoint Dewpoint Depression Visibility Wind Speed Wind Dir Waves Ship Positions

Andes

Last reported at 2017-Jan-14 08:33 UTC. Time now 2017-Jan-20 16:07 UTC.
Position N 50°10' W 001°59'.

Length 182 m; draft 10.5 m.

Type: Ship. MMSI: 209394000.

Date/timePositionNaut miles runAvg speedWind from/ knotsBaromVisibWave heightAir tempDewpointWater temp
2017-Jan-14 08:33N 50°10' W 001°59'9 8.8
2017-Jan-14 07:33N 50°12' W 001°46'1110.6
2017-Jan-14 06:33N 50°15' W 001°30'4414.4
2017-Jan-14 03:31N 50°27' W 000°24'5213.1
2017-Jan-13 23:33N 50°46' E 000°51'1813.4
2017-Jan-13 22:14N 50°57' E 001°12'912.7
2017-Jan-13 21:33N 51°05' E 001°19'1211.7
2017-Jan-13 20:34N 51°09' E 001°37'1616.2
2017-Jan-13 19:34N 51°21' E 001°54'10 9.5
2017-Jan-13 18:33N 51°22' E 002°09'10 9.8
2017-Jan-13 17:33N 51°22' E 002°25'10 9.9
2017-Jan-13 16:33N 51°22' E 002°40'10 9.8
2017-Jan-13 15:33N 51°23' E 002°56'1010.1
2017-Jan-13 14:33N 51°24' E 003°12'1110.5
2017-Jan-13 13:33N 51°25' E 003°29'6 6.3
2017-Jan-13 12:33N 51°26' E 003°39'9 8.8
2017-Jan-13 11:33N 51°21' E 003°50'9 8.6
2017-Jan-13 10:33N 51°26' E 004°01'8 7.6
2017-Jan-13 09:33N 51°24' E 004°13'4 4.0
2017-Jan-13 08:34N 51°21' E 004°17'2 1.5
2017-Jan-13 07:33N 51°19' E 004°19'0 0.2
2017-Jan-13 06:09N 51°20' E 004°19'0 0.0
2017-Jan-13 05:21N 51°20' E 004°19'0 0.0
2017-Jan-13 04:33N 51°20' E 004°19'0 0.0
2017-Jan-13 03:27N 51°20' E 004°19'0 0.0
2017-Jan-13 00:33N 51°20' E 004°19'0 0.0
2017-Jan-12 23:33N 51°20' E 004°19'0 0.0
2017-Jan-12 18:27N 51°20' E 004°19'0 0.3
2017-Jan-12 17:33N 51°19' E 004°19'2 0.1
2017-Jan-12 00:12N 51°18' E 004°20'0 0.0
2017-Jan-11 21:24N 51°18' E 004°20'0 0.0
2017-Jan-11 03:12N 51°18' E 004°20'0 0.0
2017-Jan-10 16:18N 51°18' E 004°20'2 2.0
2017-Jan-10 15:33N 51°19' E 004°19'2 2.2
2017-Jan-10 14:34N 51°21' E 004°17'4 4.0
2017-Jan-10 13:33N 51°24' E 004°12'9 9.3
2017-Jan-10 12:33N 51°25' E 003°58'1010.0
2017-Jan-10 11:33N 51°25' E 003°42'10 9.8
2017-Jan-10 10:33N 51°25' E 003°26'1514.7
2017-Jan-10 09:34N 51°24' E 003°03'1212.4
2017-Jan-10 08:33N 51°22' E 002°43'5 5.3
2017-Jan-10 07:31N 51°26' E 002°37'0 0.0
2017-Jan-10 06:31N 51°26' E 002°37'0 0.0
2017-Jan-10 05:31N 51°26' E 002°37'0 0.1
2017-Jan-10 04:31N 51°26' E 002°37'0 0.1
2017-Jan-10 03:31N 51°26' E 002°37'0 0.0
2017-Jan-10 02:31N 51°26' E 002°37'0 0.0
2017-Jan-10 01:31N 51°26' E 002°38'0 0.0
2017-Jan-10 00:31N 51°26' E 002°37'0 0.0
2017-Jan-09 23:31N 51°26' E 002°37'0 0.0
2017-Jan-09 22:31N 51°27' E 002°37'0 0.0
2017-Jan-09 21:31N 51°27' E 002°37'0 0.0
2017-Jan-09 20:31N 51°27' E 002°37'0 0.0
2017-Jan-09 19:31N 51°27' E 002°37'0 0.1
2017-Jan-09 18:31N 51°26' E 002°37'0 0.0
2017-Jan-09 17:28N 51°27' E 002°37'0 0.1
2017-Jan-09 16:31N 51°27' E 002°37'0 0.0
2017-Jan-09 15:31N 51°27' E 002°37'0 0.0
2017-Jan-09 14:31N 51°27' E 002°37'0 0.0
2017-Jan-09 13:31N 51°27' E 002°37'0 0.0
2017-Jan-09 12:31N 51°27' E 002°37'0 0.0
2017-Jan-09 11:31N 51°27' E 002°37'0 0.0
2017-Jan-09 10:31N 51°27' E 002°37'0 0.0
2017-Jan-09 09:28N 51°27' E 002°37'0 0.0
2017-Jan-09 08:31N 51°27' E 002°37'0 0.0
2017-Jan-09 07:31N 51°27' E 002°37'0 0.2
2017-Jan-09 06:31N 51°26' E 002°37'0 0.0
2017-Jan-09 05:31N 51°26' E 002°37'0 0.0
2017-Jan-09 04:31N 51°26' E 002°37'0 0.0
2017-Jan-09 03:31N 51°26' E 002°37'0 0.1
2017-Jan-09 02:31N 51°26' E 002°37'0 0.1
2017-Jan-09 01:31N 51°26' E 002°37'0 0.0
2017-Jan-09 00:31N 51°26' E 002°37'0 0.0
2017-Jan-08 23:28N 51°26' E 002°37'0 0.0
2017-Jan-08 22:31N 51°26' E 002°37'0 0.0
2017-Jan-08 21:31N 51°26' E 002°37'0 0.0
2017-Jan-08 20:31N 51°26' E 002°37'0 0.0
2017-Jan-08 19:31N 51°26' E 002°37'0 0.1
2017-Jan-08 18:31N 51°26' E 002°37'0 0.0
2017-Jan-08 17:31N 51°26' E 002°37'1 1.3
2017-Jan-08 16:31N 51°26' E 002°35'0 0.0
2017-Jan-08 15:31N 51°26' E 002°35'0 0.0
2017-Jan-08 14:31N 51°26' E 002°35'0 0.1
2017-Jan-08 13:31N 51°26' E 002°35'0 0.1
2017-Jan-08 12:31N 51°26' E 002°35'0 0.0
2017-Jan-08 11:31N 51°26' E 002°35'0 0.0
2017-Jan-08 10:31N 51°26' E 002°35'0 0.0
2017-Jan-08 09:31N 51°26' E 002°35'0 0.0
2017-Jan-08 08:31N 51°26' E 002°35'0 0.0
2017-Jan-08 07:31N 51°26' E 002°35'1 1.3
2017-Jan-08 06:34N 51°25' E 002°35'1110.8
2017-Jan-08 05:34N 51°19' E 002°21'1313.4
2017-Jan-08 04:33N 51°12' E 002°03'1212.3
2017-Jan-08 03:33N 51°05' E 001°46'1211.9
2017-Jan-08 02:34N 50°56' E 001°33'1111.1
2017-Jan-08 01:33N 50°47' E 001°26'41 9.4
2017-Jan-07 21:11N 50°24' E 000°31'710.4
2017-Jan-07 20:33N 50°23' E 000°21'1110.8
2017-Jan-07 19:33N 50°20' E 000°04'1111.2
2017-Jan-07 18:33N 50°17' W 000°13'1411.8
2017-Jan-07 17:21N 50°13' W 000°34'2413.1
2017-Jan-07 15:33N 50°07' W 001°10'1414.1
2017-Jan-07 14:33N 50°04' W 001°31'1414.2
2017-Jan-07 13:34N 50°00' W 001°52'1313.4
2017-Jan-07 12:33N 49°57' W 002°12'1512.3
2017-Jan-07 11:18N 49°53' W 002°35'911.7
2017-Jan-07 10:34N 49°51' W 002°48'1111.2
2017-Jan-07 09:33N 49°45' W 003°04'1111.0
2017-Jan-07 08:33N 49°40' W 003°18'8612.3
2017-Jan-07 01:33N 48°56' W 005°12'1313.3
2017-Jan-07 00:33N 48°49' W 005°30'4113.5
2017-Jan-06 21:33N 48°15' W 006°02'1414.1
2017-Jan-06 20:33N 48°02' W 006°12'1414.2
2017-Jan-06 19:33N 47°49' W 006°21'4013.5
2017-Jan-06 16:34N 47°14' W 006°49'  

Dump ship's entire track history